Avisos AEMET Campiña SevillanaSin Avisos+ INFO
Sevilla, Andalucía, España
Idioma: es English Français Deutsch Italiano Português Español
 

Informes METAR

 

LEZL - Sevilla, Spain
Distancia de la estación: ENE 8km
Actualización: 22/04/2024 18:00
Despejado
Despejado
 Viento de variable
Viento: variable 6 km/h
Temperatura: 26°C
Rocío: 10°C
Humedad: 37%
Barómetro: 1011 hPa
Resumen: Despejado
Visibilidad: mayor de 10 km
2024/04/22 16:00 LEZL 221600Z VRB03KT CAVOK 26/10 Q1011 NOSIG
LEMO - Morón, Spain
Distancia de la estación: SE 43km
Actualización: 22/04/2024 18:00
Poco nuboso
Poco nuboso
 Viento de variable
Viento: variable 7 km/h
Temperatura: 26°C
Rocío: 9°C
Humedad: 34%
Barómetro: 1011 hPa
Nubes: Poco nuboso
Visibilidad: 10 km
Detalles de las nubes: Poco nuboso 1219 m
2024/04/22 16:00 LEMO 221600Z VRB04KT 9999 FEW040 26/09 Q1011 NOSIG
LEJR - Jeréz, Spain
Distancia de la estación: S 71km
Actualización: 22/04/2024 18:00
Poco nuboso
Poco nuboso
 Viento de O
Viento: O 15 km/h
Temperatura: 24°C
Rocío: 13°C
Humedad: 50%
Barómetro: 1012 hPa
Nubes: Poco nuboso
Visibilidad: 10 km
Detalles de las nubes: Poco nuboso 914 m
2024/04/22 16:00 LEJR 221600Z 27008KT 230V310 9999 FEW030 24/13 Q1012
 
LERT - Rota, Spain
Distancia de la estación: SSO 89km
Actualización: 22/04/2024 18:00
Poco nuboso
Poco nuboso
 Viento de O
Viento: O 26 km/h
Temperatura: 21°C
Rocío: 15°C
Humedad: 69%
Barómetro: 1013 hPa
Nubes: Poco nuboso
Visibilidad: 10 km
Detalles de las nubes: Poco nuboso 914 m
2024/04/22 16:00 LERT 221600Z 26014KT 9999 FEW030 21/15 Q1013 NOSIG
LEMG - Málaga, Spain
Distancia de la estación: ESE 157km
Actualización: 22/04/2024 18:00
Parcialmente nuboso
Parcialmente nuboso
 Viento de ESE
Viento: ESE 17 km/h
Temperatura: 19°C
Rocío: 13°C
Humedad: 68%
Barómetro: 1012 hPa
Nubes: Parcialmente nuboso
Visibilidad: 10 km
Detalles de las nubes: Poco nuboso 1219 m
Parcialmente nuboso 1676 m
2024/04/22 16:00 LEMG 221600Z 12009KT 080V160 9999 FEW040TCU SCT055 19/13 Q1012 NOSIG
LEBA - Córdoba, Spain
Distancia de la estación: ENE 115km
Actualización: 22/04/2024 18:00
Poco nuboso
Poco nuboso
 Viento de SSO
Viento: SSO 6 km/h
Temperatura: 25°C
Rocío: 12°C
Humedad: 44%
Barómetro: 1011 hPa
Nubes: Poco nuboso
Visibilidad: 10 km
Detalles de las nubes: Poco nuboso 914 m
2024/04/22 16:00 LEBA 221600Z 20003KT 150V260 9999 FEW030 25/12 Q1011
 
LEGR - Granada, Spain
Distancia de la estación: E 198km
Actualización: 22/04/2024 18:00
Parcialmente nuboso
Parcialmente nuboso
 Viento de NNO
Viento: NNO 19 km/h
Temperatura: 23°C
Rocío: 4°C
Humedad: 29%
Barómetro: 1012 hPa
Nubes: Parcialmente nuboso
Visibilidad: 10 km
Detalles de las nubes: Poco nuboso 1524 m
Parcialmente nuboso 2134 m
2024/04/22 16:00 LEGR 221600Z 34010KT 300V010 9999 FEW050 SCT070 23/04 Q1012
LEAM - Almería, Spain
Distancia de la estación: E 326km
Actualización: 22/04/2024 18:00
Lluvia débil, Muy nuboso
Lluvia débil, Muy nuboso
 Viento de SSO
Viento: SSO 19 km/h
Temperatura: 18°C
Rocío: 14°C
Humedad: 78%
Barómetro: 1012 hPa
Resumen: Lluvia débil
Nubes: Muy nuboso
Visibilidad: 10 km
Detalles de las nubes: Muy nuboso 1524 m
2024/04/22 16:00 LEAM 221600Z 20010KT 9999 -RA BKN050 18/14 Q1012
LEMD - Madrid/Barajas, Spain
Distancia de la estación: NNE 402km
Actualización: 22/04/2024 18:00
Parcialmente nuboso
Parcialmente nuboso
 Viento de NE
Viento: NE 11 km/h
Temperatura: 19°C
Rocío: -2°C
Humedad: 24%
Barómetro: 1015 hPa
Nubes: Parcialmente nuboso
Visibilidad: 10 km
Detalles de las nubes: Parcialmente nuboso 2347 m
2024/04/22 16:00 LEMD 221600Z 04006KT 330V130 9999 SCT077 19/M02 Q1015 NOSIG
 
LEVD - Valladolid, Spain
Distancia de la estación: N 492km
Actualización: 22/04/2024 18:00
Despejado
Despejado
 Viento de ENE
Viento: ENE 24 km/h, Racha: 43 km/h
Temperatura: 12°C
Rocío: -3°C
Humedad: 35%
Barómetro: 1019 hPa
Resumen: Despejado
Visibilidad: mayor de 10 km
2024/04/22 16:00 LEVD 221600Z 07013G23KT 030V100 CAVOK 12/M03 Q1019
LEBL - Barcelona, Spain
Distancia de la estación: NE 816km
Actualización: 22/04/2024 18:00
Lluvia débil, Parcialmente nuboso
Lluvia débil, Parcialmente nuboso
 Viento de S
Viento: S 19 km/h
Temperatura: 13°C
Rocío: 7°C
Humedad: 67%
Barómetro: 1015 hPa
Resumen: Lluvia débil
Nubes: Parcialmente nuboso
Visibilidad: 10 km
Detalles de las nubes: Parcialmente nuboso 762 m
Poco nuboso 914 m
Parcialmente nuboso 1219 m
2024/04/22 16:00 LEBL 221600Z 17010KT 140V200 9999 -RA SCT025 FEW030CB SCT040 13/07 Q1015 TEMPO TS FEW030CB
LEVC - Valencia, Spain
Distancia de la estación: ENE 535km
Actualización: 22/04/2024 18:00
Muy nuboso
Muy nuboso
 Viento de E
Viento: E 24 km/h
Temperatura: 15°C
Rocío: 9°C
Humedad: 68%
Barómetro: 1015 hPa
Nubes: Muy nuboso
Visibilidad: 10 km
Detalles de las nubes: Poco nuboso 518 m
Muy nuboso 1067 m
2024/04/22 16:00 LEVC 221600Z 09013KT 9999 FEW017 BKN035 15/09 Q1015 NOSIG